EZY8637 EGKK-EDDM
Flight info
| Callsign | EZY8637 |
|---|---|
| Flight time | 1h 20m |
| Altitude | 23000 |
| Route | DVR L9 KONAN/N0452F390 UL607 SPI DCT MOVUM T109 HAREM/N0386F230 T104 ROKIL ROKIL1B |
| Aircraft | A20N/M-SDE2E3FGHIRWXY/LB1 |
Departure
| Time | 2026-05-06 19:29 |
|---|---|
| Airport | London Gatwick Airport (EGKK) |
Arrival
| Time | 2026-05-06 20:50 |
|---|---|
| Airport | Munich Airport (EDDM) |
| Time | Latitude | Longitude | Altitude | Speed | Heading |
|---|---|---|---|---|---|
| 2026-05-06 18:59 | 51.16184 | -0.18033 | 205 ft | 0 kts | 78° |
| 2026-05-06 19:15 | 51.16183 | -0.18047 | 204 ft | 2 kts | 78° |
| 2026-05-06 19:16 | 51.16180 | -0.18071 | 216 ft | 2 kts | 78° |
| 2026-05-06 19:16 | 51.16177 | -0.18094 | 206 ft | 2 kts | 78° |
| 2026-05-06 19:16 | 51.16174 | -0.18118 | 205 ft | 2 kts | 78° |
| 2026-05-06 19:16 | 51.16171 | -0.18141 | 205 ft | 2 kts | 93° |
| 2026-05-06 19:17 | 51.16174 | -0.18164 | 211 ft | 2 kts | 122° |
| 2026-05-06 19:17 | 51.16183 | -0.18183 | 216 ft | 2 kts | 135° |
| 2026-05-06 19:17 | 51.16193 | -0.18198 | 216 ft | 0 kts | 135° |
| 2026-05-06 19:17 | 51.16209 | -0.18222 | 210 ft | 2 kts | 135° |
| 2026-05-06 19:18 | 51.16209 | -0.18223 | 209 ft | 0 kts | 135° |
| 2026-05-06 19:19 | 51.16194 | -0.18206 | 216 ft | 7 kts | 153° |
| 2026-05-06 19:19 | 51.16109 | -0.18172 | 205 ft | 16 kts | 167° |
| 2026-05-06 19:20 | 51.15984 | -0.18127 | 204 ft | 20 kts | 168° |
| 2026-05-06 19:20 | 51.15842 | -0.18077 | 210 ft | 22 kts | 167° |
| 2026-05-06 19:20 | 51.15712 | -0.18040 | 204 ft | 18 kts | 189° |
| 2026-05-06 19:20 | 51.15666 | -0.18190 | 207 ft | 15 kts | 260° |
| 2026-05-06 19:21 | 51.15627 | -0.18347 | 211 ft | 15 kts | 208° |
| 2026-05-06 19:21 | 51.15526 | -0.18325 | 208 ft | 16 kts | 166° |
| 2026-05-06 19:21 | 51.15409 | -0.18283 | 203 ft | 18 kts | 168° |
| 2026-05-06 19:21 | 51.15281 | -0.18240 | 203 ft | 20 kts | 167° |
| 2026-05-06 19:22 | 51.15187 | -0.18295 | 211 ft | 15 kts | 262° |
| 2026-05-06 19:22 | 51.15161 | -0.18499 | 209 ft | 28 kts | 257° |
| 2026-05-06 19:22 | 51.15112 | -0.18862 | 213 ft | 38 kts | 258° |
| 2026-05-06 19:22 | 51.15055 | -0.19279 | 213 ft | 39 kts | 257° |
| 2026-05-06 19:23 | 51.14995 | -0.19704 | 208 ft | 39 kts | 258° |
| 2026-05-06 19:23 | 51.14937 | -0.20132 | 208 ft | 40 kts | 257° |
| 2026-05-06 19:23 | 51.14877 | -0.20564 | 208 ft | 40 kts | 257° |
| 2026-05-06 19:23 | 51.14822 | -0.20962 | 208 ft | 31 kts | 257° |
| 2026-05-06 19:24 | 51.14785 | -0.21188 | 204 ft | 17 kts | 248° |
| 2026-05-06 19:24 | 51.14757 | -0.21359 | 204 ft | 9 kts | 255° |
| 2026-05-06 19:24 | 51.14729 | -0.21401 | 206 ft | 4 kts | 197° |
| 2026-05-06 19:24 | 51.14726 | -0.21401 | 208 ft | 0 kts | 188° |
| 2026-05-06 19:25 | 51.14723 | -0.21402 | 207 ft | 3 kts | 186° |
| 2026-05-06 19:26 | 51.14670 | -0.21361 | 210 ft | 12 kts | 143° |
| 2026-05-06 19:26 | 51.14610 | -0.21325 | 205 ft | 0 kts | 168° |
| 2026-05-06 19:28 | 51.14572 | -0.21308 | 206 ft | 12 kts | 157° |
| 2026-05-06 19:28 | 51.14521 | -0.21162 | 206 ft | 8 kts | 75° |
| 2026-05-06 19:28 | 51.14523 | -0.21144 | 203 ft | 3 kts | 77° |
| 2026-05-06 19:29 | 51.14550 | -0.20964 | 209 ft | 46 kts | 77° |
| 2026-05-06 19:29 | 51.14667 | -0.20103 | 206 ft | 110 kts | 77° |
| 2026-05-06 19:29 | 51.14861 | -0.18673 | 294 ft | 148 kts | 78° |
| 2026-05-06 19:29 | 51.15058 | -0.17082 | 885 ft | 147 kts | 78° |
| 2026-05-06 19:30 | 51.15276 | -0.15503 | 1497 ft | 147 kts | 75° |
| 2026-05-06 19:30 | 51.15513 | -0.13909 | 2072 ft | 153 kts | 73° |
| 2026-05-06 19:30 | 51.15768 | -0.12155 | 2444 ft | 172 kts | 74° |
| 2026-05-06 19:30 | 51.16043 | -0.10190 | 2886 ft | 192 kts | 75° |
| 2026-05-06 19:31 | 51.16236 | -0.08768 | 3177 ft | 209 kts | 75° |
| 2026-05-06 19:31 | 51.16564 | -0.06383 | 3708 ft | 231 kts | 76° |
| 2026-05-06 19:31 | 51.16867 | -0.00832 | 4965 ft | 268 kts | 92° |
| 2026-05-06 19:32 | 51.16796 | 0.02150 | 5987 ft | 269 kts | 91° |
| 2026-05-06 19:32 | 51.16735 | 0.05146 | 6960 ft | 273 kts | 91° |
| 2026-05-06 19:32 | 51.16677 | 0.08213 | 7826 ft | 280 kts | 91° |
| 2026-05-06 19:32 | 51.16618 | 0.11355 | 8708 ft | 287 kts | 91° |
| 2026-05-06 19:33 | 51.16560 | 0.14513 | 9628 ft | 291 kts | 91° |
| 2026-05-06 19:33 | 51.16514 | 0.17761 | 10431 ft | 296 kts | 89° |
| 2026-05-06 19:33 | 51.16521 | 0.21102 | 11302 ft | 299 kts | 88° |
| 2026-05-06 19:33 | 51.16544 | 0.24389 | 12126 ft | 303 kts | 88° |
| 2026-05-06 19:34 | 51.16564 | 0.27767 | 12961 ft | 307 kts | 88° |
| 2026-05-06 19:34 | 51.16577 | 0.31190 | 13776 ft | 311 kts | 89° |
| 2026-05-06 19:34 | 51.16585 | 0.34649 | 14520 ft | 315 kts | 89° |
| 2026-05-06 19:34 | 51.16588 | 0.38165 | 15244 ft | 319 kts | 89° |
| 2026-05-06 19:35 | 51.16592 | 0.41717 | 15973 ft | 322 kts | 89° |
| 2026-05-06 19:35 | 51.16592 | 0.45176 | 16662 ft | 326 kts | 89° |
| 2026-05-06 19:35 | 51.16593 | 0.48805 | 17373 ft | 330 kts | 89° |
| 2026-05-06 19:35 | 51.16592 | 0.52526 | 17836 ft | 343 kts | 89° |
| 2026-05-06 19:36 | 51.16591 | 0.56432 | 17965 ft | 365 kts | 89° |
| 2026-05-06 19:36 | 51.16589 | 0.60553 | 17968 ft | 384 kts | 89° |
| 2026-05-06 19:36 | 51.16585 | 0.64820 | 17970 ft | 385 kts | 90° |
| 2026-05-06 19:36 | 51.16579 | 0.69081 | 17977 ft | 385 kts | 90° |
| 2026-05-06 19:37 | 51.16570 | 0.73325 | 17975 ft | 385 kts | 90° |
| 2026-05-06 19:37 | 51.16560 | 0.77597 | 17982 ft | 385 kts | 90° |
| 2026-05-06 19:37 | 51.16548 | 0.81874 | 18013 ft | 385 kts | 90° |
| 2026-05-06 19:37 | 51.16535 | 0.86137 | 18005 ft | 385 kts | 90° |
| 2026-05-06 19:38 | 51.16520 | 0.90425 | 18188 ft | 389 kts | 90° |
| 2026-05-06 19:38 | 51.16503 | 0.94740 | 18853 ft | 390 kts | 90° |
| 2026-05-06 19:38 | 51.16485 | 0.99065 | 19487 ft | 393 kts | 90° |
| 2026-05-06 19:38 | 51.16466 | 1.03443 | 20079 ft | 396 kts | 90° |
| 2026-05-06 19:39 | 51.16444 | 1.07860 | 20664 ft | 400 kts | 90° |
| 2026-05-06 19:39 | 51.16421 | 1.12245 | 21257 ft | 403 kts | 90° |
| 2026-05-06 19:39 | 51.16395 | 1.16738 | 21840 ft | 407 kts | 90° |
| 2026-05-06 19:39 | 51.16368 | 1.21260 | 22406 ft | 410 kts | 90° |
| 2026-05-06 19:40 | 51.16338 | 1.25823 | 22991 ft | 414 kts | 90° |
| 2026-05-06 19:40 | 51.16307 | 1.30422 | 23546 ft | 417 kts | 91° |
| 2026-05-06 19:40 | 51.16272 | 1.35061 | 24027 ft | 420 kts | 91° |
| 2026-05-06 19:40 | 51.16081 | 1.39731 | 24511 ft | 423 kts | 95° |
| 2026-05-06 19:41 | 51.15852 | 1.44403 | 24982 ft | 425 kts | 94° |
| 2026-05-06 19:41 | 51.15630 | 1.49112 | 25443 ft | 428 kts | 94° |
| 2026-05-06 19:41 | 51.15404 | 1.53866 | 25898 ft | 431 kts | 94° |
| 2026-05-06 19:41 | 51.15179 | 1.58564 | 26321 ft | 434 kts | 95° |
| 2026-05-06 19:42 | 51.14934 | 1.63364 | 26753 ft | 436 kts | 97° |
| 2026-05-06 19:42 | 51.14357 | 1.68118 | 27170 ft | 438 kts | 103° |
| 2026-05-06 19:42 | 51.13688 | 1.72870 | 27579 ft | 441 kts | 103° |
| 2026-05-06 19:42 | 51.13012 | 1.77652 | 27978 ft | 444 kts | 103° |
| 2026-05-06 19:43 | 51.12331 | 1.82451 | 28372 ft | 446 kts | 103° |
| 2026-05-06 19:43 | 51.11646 | 1.87274 | 28745 ft | 448 kts | 103° |
| 2026-05-06 19:43 | 51.11085 | 1.91215 | 29040 ft | 450 kts | 103° |
| 2026-05-06 19:43 | 51.10384 | 1.96120 | 29401 ft | 453 kts | 103° |
| 2026-05-06 19:44 | 51.09693 | 2.00946 | 29750 ft | 455 kts | 103° |
| 2026-05-06 19:44 | 51.08985 | 2.05870 | 30091 ft | 457 kts | 103° |
| 2026-05-06 19:44 | 51.08267 | 2.10843 | 30385 ft | 460 kts | 103° |
| 2026-05-06 19:44 | 51.07550 | 2.15775 | 30705 ft | 461 kts | 103° |
| 2026-05-06 19:45 | 51.06824 | 2.20752 | 31019 ft | 463 kts | 103° |
| 2026-05-06 19:45 | 51.06094 | 2.25742 | 31380 ft | 464 kts | 103° |
| 2026-05-06 19:45 | 51.05362 | 2.30724 | 31777 ft | 463 kts | 103° |
| 2026-05-06 19:45 | 51.04629 | 2.35698 | 32196 ft | 462 kts | 103° |
| 2026-05-06 19:46 | 51.03908 | 2.40573 | 32597 ft | 460 kts | 103° |
| 2026-05-06 19:46 | 51.03171 | 2.45525 | 32969 ft | 460 kts | 103° |
| 2026-05-06 19:46 | 51.02434 | 2.50474 | 33359 ft | 459 kts | 103° |
| 2026-05-06 19:46 | 51.01700 | 2.55400 | 33730 ft | 458 kts | 103° |
| 2026-05-06 19:47 | 51.00965 | 2.60313 | 34067 ft | 457 kts | 103° |
| 2026-05-06 19:47 | 51.00234 | 2.65214 | 34330 ft | 457 kts | 103° |
| 2026-05-06 19:47 | 50.99499 | 2.70121 | 34585 ft | 457 kts | 103° |
| 2026-05-06 19:47 | 50.98756 | 2.75042 | 34807 ft | 458 kts | 103° |
| 2026-05-06 19:48 | 50.98010 | 2.79934 | 35052 ft | 458 kts | 103° |
| 2026-05-06 19:48 | 50.97270 | 2.84781 | 35291 ft | 458 kts | 104° |
| 2026-05-06 19:48 | 50.96521 | 2.89680 | 35523 ft | 458 kts | 104° |
| 2026-05-06 19:48 | 50.95767 | 2.94609 | 35744 ft | 458 kts | 104° |
| 2026-05-06 19:49 | 50.95011 | 2.99518 | 35968 ft | 458 kts | 104° |
| 2026-05-06 19:49 | 50.94255 | 3.04432 | 36178 ft | 459 kts | 104° |
| 2026-05-06 19:49 | 50.93498 | 3.09343 | 36386 ft | 459 kts | 104° |
| 2026-05-06 19:49 | 50.92736 | 3.14262 | 36578 ft | 459 kts | 104° |
| 2026-05-06 19:50 | 50.91974 | 3.19167 | 36770 ft | 459 kts | 104° |
| 2026-05-06 19:50 | 50.91217 | 3.24027 | 36970 ft | 459 kts | 104° |
| 2026-05-06 19:50 | 50.90450 | 3.28938 | 37149 ft | 460 kts | 104° |
| 2026-05-06 19:50 | 50.89682 | 3.33837 | 37335 ft | 460 kts | 104° |
| 2026-05-06 19:51 | 50.88907 | 3.38768 | 37513 ft | 460 kts | 105° |
| 2026-05-06 19:51 | 50.88133 | 3.43683 | 37690 ft | 460 kts | 105° |
| 2026-05-06 19:51 | 50.87356 | 3.48597 | 37864 ft | 460 kts | 105° |
| 2026-05-06 19:51 | 50.86578 | 3.53504 | 38016 ft | 460 kts | 105° |
| 2026-05-06 19:52 | 50.85798 | 3.58407 | 38194 ft | 460 kts | 105° |
| 2026-05-06 19:52 | 50.85012 | 3.63334 | 38352 ft | 460 kts | 105° |
| 2026-05-06 19:52 | 50.84228 | 3.68238 | 38495 ft | 461 kts | 105° |
| 2026-05-06 19:52 | 50.83447 | 3.73099 | 38636 ft | 461 kts | 105° |
| 2026-05-06 19:53 | 50.82647 | 3.78074 | 38744 ft | 461 kts | 105° |
| 2026-05-06 19:53 | 50.81866 | 3.82911 | 38861 ft | 461 kts | 105° |
| 2026-05-06 19:53 | 50.80275 | 3.92723 | 38940 ft | 461 kts | 105° |
| 2026-05-06 19:54 | 50.78677 | 4.02520 | 38939 ft | 460 kts | 105° |
| 2026-05-06 19:54 | 50.77069 | 4.12315 | 38940 ft | 460 kts | 105° |
| 2026-05-06 19:55 | 50.75454 | 4.22104 | 38936 ft | 461 kts | 106° |
| 2026-05-06 19:55 | 50.73843 | 4.31814 | 38940 ft | 461 kts | 106° |
| 2026-05-06 19:56 | 50.72211 | 4.41587 | 38940 ft | 460 kts | 106° |
| 2026-05-06 19:56 | 50.70577 | 4.51323 | 38940 ft | 461 kts | 106° |
| 2026-05-06 19:57 | 50.68924 | 4.61114 | 38943 ft | 460 kts | 106° |
| 2026-05-06 19:57 | 50.67281 | 4.70797 | 38939 ft | 461 kts | 106° |
| 2026-05-06 19:58 | 50.65615 | 4.80552 | 38940 ft | 460 kts | 106° |
| 2026-05-06 19:58 | 50.63945 | 4.90282 | 38933 ft | 460 kts | 107° |
| 2026-05-06 19:59 | 50.62265 | 5.00014 | 38931 ft | 460 kts | 107° |
| 2026-05-06 19:59 | 50.60588 | 5.09676 | 38928 ft | 460 kts | 107° |
| 2026-05-06 20:00 | 50.58892 | 5.19393 | 38932 ft | 460 kts | 107° |
| 2026-05-06 20:00 | 50.57190 | 5.29089 | 38932 ft | 460 kts | 107° |
| 2026-05-06 20:01 | 50.55479 | 5.38788 | 38933 ft | 460 kts | 107° |
| 2026-05-06 20:01 | 50.53768 | 5.48427 | 38934 ft | 460 kts | 107° |
| 2026-05-06 20:02 | 50.52043 | 5.58101 | 38934 ft | 460 kts | 107° |
| 2026-05-06 20:02 | 50.50305 | 5.67794 | 38928 ft | 461 kts | 107° |
| 2026-05-06 20:03 | 50.48560 | 5.77471 | 38922 ft | 461 kts | 107° |
| 2026-05-06 20:03 | 50.46807 | 5.87140 | 38914 ft | 461 kts | 107° |
| 2026-05-06 20:04 | 50.45059 | 5.96738 | 38902 ft | 461 kts | 108° |
| 2026-05-06 20:04 | 50.43288 | 6.06405 | 38901 ft | 461 kts | 108° |
| 2026-05-06 20:05 | 50.41510 | 6.16059 | 38880 ft | 461 kts | 108° |
| 2026-05-06 20:05 | 50.39725 | 6.25706 | 38872 ft | 461 kts | 108° |
| 2026-05-06 20:06 | 50.37930 | 6.35350 | 38865 ft | 461 kts | 108° |
| 2026-05-06 20:06 | 50.36129 | 6.44983 | 38875 ft | 461 kts | 108° |
| 2026-05-06 20:07 | 50.34332 | 6.54539 | 38868 ft | 461 kts | 108° |
| 2026-05-06 20:07 | 50.32516 | 6.64148 | 38856 ft | 461 kts | 108° |
| 2026-05-06 20:08 | 50.30294 | 6.75842 | 38870 ft | 460 kts | 108° |
| 2026-05-06 20:08 | 50.27294 | 6.91516 | 38849 ft | 460 kts | 109° |
| 2026-05-06 20:09 | 50.23595 | 7.10664 | 38842 ft | 460 kts | 109° |
| 2026-05-06 20:09 | 50.19876 | 7.29718 | 38859 ft | 459 kts | 109° |
| 2026-05-06 20:10 | 50.17307 | 7.42775 | 38854 ft | 459 kts | 109° |
| 2026-05-06 20:10 | 50.15422 | 7.52299 | 38868 ft | 460 kts | 109° |
| 2026-05-06 20:11 | 50.13529 | 7.61817 | 38856 ft | 460 kts | 109° |
| 2026-05-06 20:11 | 50.11639 | 7.71273 | 38857 ft | 460 kts | 109° |
| 2026-05-06 20:12 | 50.09729 | 7.80784 | 38851 ft | 460 kts | 110° |
| 2026-05-06 20:12 | 50.07810 | 7.90292 | 38856 ft | 460 kts | 110° |
| 2026-05-06 20:13 | 50.05880 | 7.99808 | 38858 ft | 461 kts | 110° |
| 2026-05-06 20:13 | 50.03958 | 8.09238 | 38857 ft | 461 kts | 110° |
| 2026-05-06 20:14 | 50.02012 | 8.18745 | 38864 ft | 461 kts | 110° |
| 2026-05-06 20:14 | 50.00066 | 8.28211 | 38751 ft | 457 kts | 110° |
| 2026-05-06 20:15 | 49.99102 | 8.32901 | 38357 ft | 455 kts | 110° |
| 2026-05-06 20:15 | 49.98140 | 8.37567 | 37768 ft | 453 kts | 110° |
| 2026-05-06 20:15 | 49.97181 | 8.42209 | 37134 ft | 451 kts | 110° |
| 2026-05-06 20:15 | 49.96231 | 8.46787 | 36514 ft | 449 kts | 111° |
| 2026-05-06 20:16 | 49.95162 | 8.51394 | 35874 ft | 446 kts | 116° |
| 2026-05-06 20:16 | 49.94211 | 8.54683 | 35424 ft | 443 kts | 120° |
| 2026-05-06 20:16 | 49.92728 | 8.58839 | 34817 ft | 440 kts | 124° |
| 2026-05-06 20:16 | 49.91199 | 8.62923 | 34229 ft | 438 kts | 123° |
| 2026-05-06 20:17 | 49.89694 | 8.67010 | 33623 ft | 436 kts | 123° |
| 2026-05-06 20:17 | 49.88195 | 8.71086 | 32937 ft | 434 kts | 123° |
| 2026-05-06 20:17 | 49.86696 | 8.75151 | 32202 ft | 433 kts | 122° |
| 2026-05-06 20:17 | 49.85200 | 8.79181 | 31454 ft | 432 kts | 122° |
| 2026-05-06 20:18 | 49.83699 | 8.83221 | 30750 ft | 431 kts | 122° |
| 2026-05-06 20:18 | 49.82298 | 8.86991 | 30098 ft | 430 kts | 121° |
| 2026-05-06 20:18 | 49.80784 | 8.91063 | 29456 ft | 425 kts | 121° |
| 2026-05-06 20:18 | 49.79313 | 8.95017 | 28759 ft | 421 kts | 121° |
| 2026-05-06 20:19 | 49.77853 | 8.98924 | 28067 ft | 419 kts | 122° |
| 2026-05-06 20:19 | 49.76398 | 9.02813 | 27410 ft | 415 kts | 122° |
| 2026-05-06 20:19 | 49.74965 | 9.06626 | 26757 ft | 412 kts | 122° |
| 2026-05-06 20:19 | 49.73535 | 9.10437 | 26122 ft | 410 kts | 122° |
| 2026-05-06 20:20 | 49.72108 | 9.14238 | 25505 ft | 407 kts | 122° |
| 2026-05-06 20:20 | 49.70697 | 9.17991 | 24894 ft | 405 kts | 122° |
| 2026-05-06 20:20 | 49.69279 | 9.21754 | 24270 ft | 403 kts | 122° |
| 2026-05-06 20:20 | 49.67877 | 9.25471 | 23687 ft | 400 kts | 122° |
| 2026-05-06 20:21 | 49.66477 | 9.29176 | 23102 ft | 397 kts | 122° |
| 2026-05-06 20:21 | 49.65119 | 9.32769 | 22862 ft | 391 kts | 122° |
| 2026-05-06 20:21 | 49.63734 | 9.36424 | 22826 ft | 396 kts | 122° |
| 2026-05-06 20:21 | 49.62323 | 9.40072 | 22820 ft | 395 kts | 125° |
| 2026-05-06 20:22 | 49.60703 | 9.43457 | 22824 ft | 393 kts | 132° |
| 2026-05-06 20:22 | 49.58900 | 9.46611 | 22822 ft | 392 kts | 133° |
| 2026-05-06 20:22 | 49.57087 | 9.49778 | 22822 ft | 392 kts | 133° |
| 2026-05-06 20:22 | 49.55292 | 9.52925 | 22822 ft | 392 kts | 133° |
| 2026-05-06 20:23 | 49.53496 | 9.56077 | 22818 ft | 391 kts | 133° |
| 2026-05-06 20:23 | 49.51704 | 9.59216 | 22824 ft | 390 kts | 133° |
| 2026-05-06 20:23 | 49.49932 | 9.62317 | 22823 ft | 389 kts | 133° |
| 2026-05-06 20:23 | 49.48150 | 9.65431 | 22824 ft | 389 kts | 133° |
| 2026-05-06 20:24 | 49.46364 | 9.68545 | 22828 ft | 388 kts | 133° |
| 2026-05-06 20:24 | 49.44578 | 9.71659 | 22826 ft | 387 kts | 134° |
| 2026-05-06 20:24 | 49.42798 | 9.74759 | 22829 ft | 387 kts | 134° |
| 2026-05-06 20:24 | 49.41021 | 9.77849 | 22827 ft | 386 kts | 134° |
| 2026-05-06 20:25 | 49.39240 | 9.80943 | 22827 ft | 385 kts | 134° |
| 2026-05-06 20:25 | 49.37464 | 9.84023 | 22832 ft | 385 kts | 134° |
| 2026-05-06 20:25 | 49.35689 | 9.87093 | 22830 ft | 385 kts | 134° |
| 2026-05-06 20:25 | 49.33913 | 9.90157 | 22827 ft | 384 kts | 134° |
| 2026-05-06 20:26 | 49.32174 | 9.93155 | 22828 ft | 383 kts | 134° |
| 2026-05-06 20:26 | 49.30390 | 9.96227 | 22827 ft | 383 kts | 134° |
| 2026-05-06 20:26 | 49.28616 | 9.99279 | 22828 ft | 383 kts | 134° |
| 2026-05-06 20:26 | 49.26845 | 10.02321 | 22832 ft | 383 kts | 135° |
| 2026-05-06 20:27 | 49.25071 | 10.05366 | 22827 ft | 383 kts | 135° |
| 2026-05-06 20:27 | 49.23298 | 10.08405 | 22832 ft | 383 kts | 135° |
| 2026-05-06 20:27 | 49.21525 | 10.11440 | 22838 ft | 383 kts | 135° |
| 2026-05-06 20:27 | 49.19749 | 10.14477 | 22840 ft | 383 kts | 135° |
| 2026-05-06 20:28 | 49.17998 | 10.17469 | 22842 ft | 382 kts | 135° |
| 2026-05-06 20:28 | 49.16228 | 10.20494 | 22864 ft | 382 kts | 135° |
| 2026-05-06 20:28 | 49.14451 | 10.23529 | 22861 ft | 382 kts | 135° |
| 2026-05-06 20:28 | 49.12662 | 10.26524 | 22861 ft | 382 kts | 136° |
| 2026-05-06 20:29 | 49.10834 | 10.29465 | 22858 ft | 381 kts | 136° |
| 2026-05-06 20:29 | 49.08998 | 10.32388 | 22863 ft | 382 kts | 136° |
| 2026-05-06 20:29 | 49.07161 | 10.35315 | 22873 ft | 382 kts | 136° |
| 2026-05-06 20:29 | 49.05330 | 10.38241 | 22875 ft | 382 kts | 136° |
| 2026-05-06 20:30 | 49.03501 | 10.41168 | 22870 ft | 383 kts | 136° |
| 2026-05-06 20:30 | 49.00268 | 10.47556 | 22873 ft | 389 kts | 123° |
| 2026-05-06 20:30 | 48.98950 | 10.51160 | 22881 ft | 389 kts | 122° |
| 2026-05-06 20:31 | 48.97647 | 10.54774 | 22722 ft | 390 kts | 122° |
| 2026-05-06 20:31 | 48.96329 | 10.58366 | 22445 ft | 388 kts | 123° |
| 2026-05-06 20:31 | 48.94995 | 10.61934 | 22174 ft | 386 kts | 123° |
| 2026-05-06 20:31 | 48.93676 | 10.65418 | 21913 ft | 385 kts | 123° |
| 2026-05-06 20:32 | 48.92334 | 10.68938 | 21644 ft | 385 kts | 124° |
| 2026-05-06 20:32 | 48.90988 | 10.72455 | 21387 ft | 384 kts | 124° |
| 2026-05-06 20:32 | 48.89649 | 10.75950 | 21121 ft | 382 kts | 124° |
| 2026-05-06 20:32 | 48.88310 | 10.79440 | 20863 ft | 382 kts | 124° |
| 2026-05-06 20:33 | 48.86974 | 10.82920 | 20606 ft | 381 kts | 124° |
| 2026-05-06 20:33 | 48.85644 | 10.86379 | 20346 ft | 379 kts | 124° |
| 2026-05-06 20:33 | 48.84313 | 10.89834 | 20099 ft | 379 kts | 124° |
| 2026-05-06 20:33 | 48.82986 | 10.93277 | 19913 ft | 376 kts | 124° |
| 2026-05-06 20:34 | 48.81705 | 10.96597 | 19883 ft | 377 kts | 124° |
| 2026-05-06 20:34 | 48.80358 | 11.00080 | 19882 ft | 378 kts | 124° |
| 2026-05-06 20:34 | 48.79024 | 11.03528 | 19880 ft | 378 kts | 124° |
| 2026-05-06 20:34 | 48.77697 | 11.06951 | 19754 ft | 378 kts | 124° |
| 2026-05-06 20:35 | 48.76365 | 11.10385 | 19518 ft | 376 kts | 124° |
| 2026-05-06 20:35 | 48.75042 | 11.13796 | 19264 ft | 374 kts | 124° |
| 2026-05-06 20:35 | 48.73724 | 11.17183 | 19022 ft | 373 kts | 124° |
| 2026-05-06 20:35 | 48.72411 | 11.20556 | 18939 ft | 368 kts | 124° |
| 2026-05-06 20:36 | 48.71133 | 11.23838 | 19520 ft | 360 kts | 124° |
| 2026-05-06 20:36 | 48.69862 | 11.27088 | 19795 ft | 368 kts | 124° |
| 2026-05-06 20:36 | 48.68554 | 11.30427 | 19742 ft | 369 kts | 124° |
| 2026-05-06 20:36 | 48.67734 | 11.32522 | 19564 ft | 369 kts | 124° |
| 2026-05-06 20:37 | 48.65970 | 11.37023 | 18765 ft | 375 kts | 124° |
| 2026-05-06 20:37 | 48.64627 | 11.40443 | 17797 ft | 383 kts | 124° |
| 2026-05-06 20:37 | 48.63246 | 11.43955 | 16512 ft | 395 kts | 124° |
| 2026-05-06 20:37 | 48.61842 | 11.47511 | 15163 ft | 410 kts | 124° |
| 2026-05-06 20:38 | 48.60353 | 11.51293 | 14433 ft | 407 kts | 124° |
| 2026-05-06 20:38 | 48.58955 | 11.54856 | 14212 ft | 391 kts | 124° |
| 2026-05-06 20:38 | 48.57588 | 11.58356 | 13725 ft | 385 kts | 122° |
| 2026-05-06 20:38 | 48.56497 | 11.62007 | 13358 ft | 378 kts | 113° |
| 2026-05-06 20:39 | 48.55661 | 11.65706 | 13042 ft | 367 kts | 112° |
| 2026-05-06 20:39 | 48.54840 | 11.69310 | 12538 ft | 363 kts | 112° |
| 2026-05-06 20:39 | 48.54013 | 11.72909 | 12038 ft | 359 kts | 112° |
| 2026-05-06 20:39 | 48.53197 | 11.76449 | 11527 ft | 356 kts | 112° |
| 2026-05-06 20:40 | 48.52394 | 11.79921 | 10965 ft | 356 kts | 112° |
| 2026-05-06 20:40 | 48.51569 | 11.83490 | 10427 ft | 354 kts | 112° |
| 2026-05-06 20:40 | 48.50766 | 11.86962 | 10136 ft | 345 kts | 113° |
| 2026-05-06 20:40 | 48.50003 | 11.90269 | 10003 ft | 332 kts | 113° |
| 2026-05-06 20:41 | 48.49260 | 11.93485 | 9882 ft | 318 kts | 113° |
| 2026-05-06 20:41 | 48.48543 | 11.96577 | 9715 ft | 308 kts | 113° |
| 2026-05-06 20:41 | 48.47841 | 11.99586 | 9258 ft | 303 kts | 113° |
| 2026-05-06 20:41 | 48.47136 | 12.02592 | 8620 ft | 303 kts | 113° |
| 2026-05-06 20:42 | 48.46438 | 12.05575 | 8031 ft | 301 kts | 113° |
| 2026-05-06 20:42 | 48.45740 | 12.08545 | 7433 ft | 301 kts | 112° |
| 2026-05-06 20:42 | 48.45036 | 12.11507 | 6843 ft | 300 kts | 112° |
| 2026-05-06 20:42 | 48.44324 | 12.14457 | 6280 ft | 299 kts | 112° |
| 2026-05-06 20:43 | 48.43380 | 12.17149 | 5718 ft | 292 kts | 134° |
| 2026-05-06 20:43 | 48.41818 | 12.18951 | 5231 ft | 277 kts | 165° |
| 2026-05-06 20:43 | 48.40041 | 12.19187 | 5101 ft | 242 kts | 202° |
| 2026-05-06 20:43 | 48.38753 | 12.17945 | 4979 ft | 207 kts | 242° |
| 2026-05-06 20:44 | 48.38426 | 12.16005 | 4933 ft | 206 kts | 275° |
| 2026-05-06 20:44 | 48.38629 | 12.13882 | 4825 ft | 202 kts | 279° |
| 2026-05-06 20:44 | 48.38759 | 12.12501 | 4767 ft | 201 kts | 275° |
| 2026-05-06 20:44 | 48.38793 | 12.10451 | 4672 ft | 191 kts | 269° |
| 2026-05-06 20:45 | 48.38701 | 12.08508 | 4572 ft | 181 kts | 265° |
| 2026-05-06 20:45 | 48.38519 | 12.06079 | 4478 ft | 174 kts | 266° |
| 2026-05-06 20:45 | 48.38387 | 12.04353 | 4365 ft | 160 kts | 266° |
| 2026-05-06 20:45 | 48.38264 | 12.02731 | 4186 ft | 153 kts | 266° |
| 2026-05-06 20:46 | 48.38145 | 12.01176 | 4002 ft | 147 kts | 265° |
| 2026-05-06 20:46 | 48.38069 | 12.00183 | 3877 ft | 140 kts | 265° |
| 2026-05-06 20:46 | 48.37962 | 11.98794 | 3696 ft | 128 kts | 266° |
| 2026-05-06 20:46 | 48.37862 | 11.97469 | 3539 ft | 130 kts | 266° |
| 2026-05-06 20:47 | 48.37726 | 11.95697 | 3317 ft | 127 kts | 266° |
| 2026-05-06 20:47 | 48.37625 | 11.94378 | 3153 ft | 126 kts | 266° |
| 2026-05-06 20:47 | 48.37527 | 11.93068 | 2971 ft | 127 kts | 266° |
| 2026-05-06 20:47 | 48.37475 | 11.92166 | 2858 ft | 128 kts | 267° |
| 2026-05-06 20:48 | 48.37398 | 11.90836 | 2781 ft | 129 kts | 264° |
| 2026-05-06 20:48 | 48.37277 | 11.89521 | 2695 ft | 126 kts | 264° |
| 2026-05-06 20:48 | 48.37167 | 11.88181 | 2440 ft | 132 kts | 264° |
| 2026-05-06 20:48 | 48.37068 | 11.86807 | 2205 ft | 134 kts | 261° |
| 2026-05-06 20:49 | 48.36953 | 11.85412 | 1930 ft | 132 kts | 262° |
| 2026-05-06 20:49 | 48.36845 | 11.84085 | 1771 ft | 128 kts | 261° |
| 2026-05-06 20:49 | 48.36734 | 11.82723 | 1607 ft | 134 kts | 262° |
| 2026-05-06 20:49 | 48.36622 | 11.81350 | 1482 ft | 126 kts | 263° |
| 2026-05-06 20:50 | 48.36548 | 11.80319 | 1485 ft | 72 kts | 263° |
| 2026-05-06 20:50 | 48.36504 | 11.79855 | 1479 ft | 30 kts | 249° |
| 2026-05-06 20:50 | 48.36400 | 11.79601 | 1481 ft | 28 kts | 234° |
| 2026-05-06 20:50 | 48.36317 | 11.79430 | 1476 ft | 13 kts | 234° |
| 2026-05-06 20:51 | 48.36264 | 11.79322 | 1478 ft | 14 kts | 234° |
| 2026-05-06 20:51 | 48.36229 | 11.79249 | 1485 ft | 4 kts | 233° |
| 2026-05-06 20:51 | 48.36209 | 11.79207 | 1480 ft | 6 kts | 233° |
| 2026-05-06 20:51 | 48.36188 | 11.79143 | 1479 ft | 7 kts | 265° |
| 2026-05-06 20:52 | 48.36216 | 11.79286 | 1480 ft | 0 kts | 182° |
| 2026-05-06 20:52 | 48.36205 | 11.79452 | 1485 ft | 1 kts | 182° |
| 2026-05-06 20:52 | 48.36191 | 11.79455 | 1475 ft | 3 kts | 174° |
| 2026-05-06 20:52 | 48.36201 | 11.79294 | 1481 ft | 37 kts | 287° |
| 2026-05-06 20:53 | 48.36173 | 11.78946 | 1480 ft | 32 kts | 262° |
| 2026-05-06 20:53 | 48.36148 | 11.78621 | 1481 ft | 31 kts | 263° |
| 2026-05-06 20:53 | 48.36142 | 11.78541 | 1481 ft | 5 kts | 263° |
| 2026-05-06 20:53 | 48.36135 | 11.78446 | 1473 ft | 11 kts | 263° |
| 2026-05-06 20:54 | 48.36125 | 11.78315 | 1485 ft | 14 kts | 263° |
| 2026-05-06 20:54 | 48.36113 | 11.78163 | 1485 ft | 16 kts | 263° |
| 2026-05-06 20:54 | 48.36098 | 11.77992 | 1485 ft | 18 kts | 263° |